sensor_id;sensor_type;location;lat;lon;timestamp;P1;durP1;ratioP1;P2;durP2;ratioP2
781;SDS011;374;52.568;13.402;2023-12-07T00:00:38;43.33;;;25.43;;
781;SDS011;374;52.568;13.402;2023-12-07T00:03:03;42.97;;;26.97;;
781;SDS011;374;52.568;13.402;2023-12-07T00:05:31;43.60;;;27.17;;
781;SDS011;374;52.568;13.402;2023-12-07T00:07:57;42.30;;;25.10;;
781;SDS011;374;52.568;13.402;2023-12-07T00:10:23;44.10;;;25.60;;
781;SDS011;374;52.568;13.402;2023-12-07T00:12:48;47.30;;;26.10;;
781;SDS011;374;52.568;13.402;2023-12-07T00:15:14;46.83;;;26.00;;
781;SDS011;374;52.568;13.402;2023-12-07T00:17:39;40.00;;;23.90;;
781;SDS011;374;52.568;13.402;2023-12-07T00:20:05;44.10;;;24.10;;
781;SDS011;374;52.568;13.402;2023-12-07T00:22:31;41.00;;;26.03;;
781;SDS011;374;52.568;13.402;2023-12-07T00:24:56;41.57;;;24.27;;
781;SDS011;374;52.568;13.402;2023-12-07T00:27:22;42.73;;;26.23;;
781;SDS011;374;52.568;13.402;2023-12-07T00:29:47;47.63;;;25.47;;
781;SDS011;374;52.568;13.402;2023-12-07T00:32:13;41.10;;;24.93;;
781;SDS011;374;52.568;13.402;2023-12-07T00:34:38;45.83;;;25.50;;
781;SDS011;374;52.568;13.402;2023-12-07T00:37:04;43.27;;;25.00;;
781;SDS011;374;52.568;13.402;2023-12-07T00:39:32;39.93;;;25.23;;
781;SDS011;374;52.568;13.402;2023-12-07T00:41:58;37.77;;;22.77;;
781;SDS011;374;52.568;13.402;2023-12-07T00:44:23;41.70;;;23.37;;
781;SDS011;374;52.568;13.402;2023-12-07T00:46:49;44.40;;;24.37;;
781;SDS011;374;52.568;13.402;2023-12-07T00:49:20;41.63;;;24.80;;
781;SDS011;374;52.568;13.402;2023-12-07T00:51:46;40.67;;;24.97;;
781;SDS011;374;52.568;13.402;2023-12-07T00:54:12;42.73;;;24.10;;
781;SDS011;374;52.568;13.402;2023-12-07T00:56:38;41.27;;;24.27;;
781;SDS011;374;52.568;13.402;2023-12-07T00:59:04;46.30;;;25.13;;
781;SDS011;374;52.568;13.402;2023-12-07T01:01:34;46.87;;;26.20;;
781;SDS011;374;52.568;13.402;2023-12-07T01:04:03;45.10;;;26.47;;
781;SDS011;374;52.568;13.402;2023-12-07T01:06:33;47.77;;;26.67;;
781;SDS011;374;52.568;13.402;2023-12-07T01:09:01;41.13;;;25.20;;
781;SDS011;374;52.568;13.402;2023-12-07T01:11:28;45.77;;;26.43;;
781;SDS011;374;52.568;13.402;2023-12-07T01:13:54;49.33;;;24.57;;
781;SDS011;374;52.568;13.402;2023-12-07T01:16:22;40.83;;;24.23;;
781;SDS011;374;52.568;13.402;2023-12-07T01:18:49;42.60;;;26.07;;
781;SDS011;374;52.568;13.402;2023-12-07T01:21:15;41.43;;;24.80;;
781;SDS011;374;52.568;13.402;2023-12-07T01:23:40;44.87;;;24.27;;
781;SDS011;374;52.568;13.402;2023-12-07T01:26:09;46.70;;;24.57;;
781;SDS011;374;52.568;13.402;2023-12-07T01:28:34;44.83;;;23.57;;
781;SDS011;374;52.568;13.402;2023-12-07T01:31:00;38.27;;;23.20;;
781;SDS011;374;52.568;13.402;2023-12-07T01:33:29;42.20;;;25.27;;
781;SDS011;374;52.568;13.402;2023-12-07T01:35:54;44.73;;;26.07;;
781;SDS011;374;52.568;13.402;2023-12-07T01:38:23;40.90;;;24.10;;
781;SDS011;374;52.568;13.402;2023-12-07T01:40:48;45.90;;;24.87;;
781;SDS011;374;52.568;13.402;2023-12-07T01:43:14;43.93;;;27.00;;
781;SDS011;374;52.568;13.402;2023-12-07T01:45:42;47.47;;;28.10;;
781;SDS011;374;52.568;13.402;2023-12-07T01:48:08;44.63;;;25.47;;
781;SDS011;374;52.568;13.402;2023-12-07T01:50:34;45.90;;;26.00;;
781;SDS011;374;52.568;13.402;2023-12-07T01:53:02;48.80;;;27.00;;
781;SDS011;374;52.568;13.402;2023-12-07T01:55:29;40.87;;;25.10;;
781;SDS011;374;52.568;13.402;2023-12-07T01:57:56;40.80;;;25.30;;
781;SDS011;374;52.568;13.402;2023-12-07T02:00:22;43.33;;;25.90;;
781;SDS011;374;52.568;13.402;2023-12-07T02:02:48;46.10;;;25.90;;
781;SDS011;374;52.568;13.402;2023-12-07T02:05:14;41.43;;;24.10;;
781;SDS011;374;52.568;13.402;2023-12-07T02:07:40;41.00;;;24.87;;
781;SDS011;374;52.568;13.402;2023-12-07T02:10:06;42.87;;;24.50;;
781;SDS011;374;52.568;13.402;2023-12-07T02:12:32;38.57;;;23.13;;
781;SDS011;374;52.568;13.402;2023-12-07T02:14:59;46.90;;;25.17;;
781;SDS011;374;52.568;13.402;2023-12-07T02:17:33;50.60;;;27.00;;
781;SDS011;374;52.568;13.402;2023-12-07T02:22:33;48.80;;;26.23;;
781;SDS011;374;52.568;13.402;2023-12-07T02:25:07;45.20;;;26.10;;
781;SDS011;374;52.568;13.402;2023-12-07T02:30:03;44.00;;;27.90;;
781;SDS011;374;52.568;13.402;2023-12-07T02:32:29;49.63;;;28.90;;
781;SDS011;374;52.568;13.402;2023-12-07T02:34:55;44.93;;;28.20;;
781;SDS011;374;52.568;13.402;2023-12-07T02:37:21;41.53;;;27.03;;
781;SDS011;374;52.568;13.402;2023-12-07T02:39:48;43.47;;;26.67;;
781;SDS011;374;52.568;13.402;2023-12-07T02:42:14;46.20;;;27.70;;
781;SDS011;374;52.568;13.402;2023-12-07T02:44:41;41.70;;;24.70;;
781;SDS011;374;52.568;13.402;2023-12-07T02:47:10;44.83;;;24.20;;
781;SDS011;374;52.568;13.402;2023-12-07T02:49:36;40.30;;;25.07;;
781;SDS011;374;52.568;13.402;2023-12-07T02:52:01;41.90;;;24.53;;
781;SDS011;374;52.568;13.402;2023-12-07T02:54:27;38.13;;;24.17;;
781;SDS011;374;52.568;13.402;2023-12-07T02:56:52;34.93;;;22.43;;
781;SDS011;374;52.568;13.402;2023-12-07T02:59:18;40.53;;;23.80;;
781;SDS011;374;52.568;13.402;2023-12-07T03:01:43;35.93;;;21.80;;
781;SDS011;374;52.568;13.402;2023-12-07T03:04:08;36.10;;;22.47;;
781;SDS011;374;52.568;13.402;2023-12-07T03:06:34;37.77;;;21.73;;
781;SDS011;374;52.568;13.402;2023-12-07T03:08:59;39.97;;;23.30;;
781;SDS011;374;52.568;13.402;2023-12-07T03:11:25;36.10;;;22.77;;
781;SDS011;374;52.568;13.402;2023-12-07T03:13:50;43.27;;;24.67;;
781;SDS011;374;52.568;13.402;2023-12-07T03:16:16;40.93;;;23.00;;
781;SDS011;374;52.568;13.402;2023-12-07T03:18:41;38.50;;;23.83;;
781;SDS011;374;52.568;13.402;2023-12-07T03:21:07;41.73;;;24.20;;
781;SDS011;374;52.568;13.402;2023-12-07T03:23:32;47.67;;;23.50;;
781;SDS011;374;52.568;13.402;2023-12-07T03:25:57;43.33;;;22.80;;
781;SDS011;374;52.568;13.402;2023-12-07T03:28:23;37.83;;;22.50;;
781;SDS011;374;52.568;13.402;2023-12-07T03:30:48;38.10;;;22.80;;
781;SDS011;374;52.568;13.402;2023-12-07T03:33:14;35.20;;;22.93;;
781;SDS011;374;52.568;13.402;2023-12-07T03:35:39;42.17;;;23.20;;
781;SDS011;374;52.568;13.402;2023-12-07T03:38:05;45.90;;;24.70;;
781;SDS011;374;52.568;13.402;2023-12-07T03:40:31;42.67;;;23.87;;
781;SDS011;374;52.568;13.402;2023-12-07T03:42:57;44.87;;;23.47;;
781;SDS011;374;52.568;13.402;2023-12-07T03:45:22;39.57;;;23.57;;
781;SDS011;374;52.568;13.402;2023-12-07T03:47:48;51.17;;;25.57;;
781;SDS011;374;52.568;13.402;2023-12-07T03:50:14;55.53;;;27.47;;
781;SDS011;374;52.568;13.402;2023-12-07T03:52:39;63.20;;;30.20;;
781;SDS011;374;52.568;13.402;2023-12-07T03:55:05;55.17;;;27.87;;
781;SDS011;374;52.568;13.402;2023-12-07T03:57:30;60.00;;;28.87;;
781;SDS011;374;52.568;13.402;2023-12-07T03:59:56;52.50;;;27.10;;
781;SDS011;374;52.568;13.402;2023-12-07T04:02:21;47.60;;;28.30;;
781;SDS011;374;52.568;13.402;2023-12-07T04:04:47;57.13;;;28.83;;
781;SDS011;374;52.568;13.402;2023-12-07T04:07:13;63.73;;;29.80;;
781;SDS011;374;52.568;13.402;2023-12-07T04:09:38;62.87;;;29.37;;
781;SDS011;374;52.568;13.402;2023-12-07T04:12:04;67.47;;;30.67;;
781;SDS011;374;52.568;13.402;2023-12-07T04:14:29;54.20;;;27.17;;
781;SDS011;374;52.568;13.402;2023-12-07T04:16:55;61.40;;;29.37;;
781;SDS011;374;52.568;13.402;2023-12-07T04:19:21;66.20;;;30.30;;
781;SDS011;374;52.568;13.402;2023-12-07T04:21:46;68.33;;;31.17;;
781;SDS011;374;52.568;13.402;2023-12-07T04:24:12;58.80;;;27.20;;
781;SDS011;374;52.568;13.402;2023-12-07T04:26:37;60.57;;;26.70;;
781;SDS011;374;52.568;13.402;2023-12-07T04:29:03;47.33;;;26.10;;
781;SDS011;374;52.568;13.402;2023-12-07T04:31:28;59.83;;;30.90;;
781;SDS011;374;52.568;13.402;2023-12-07T04:33:54;55.63;;;28.13;;
781;SDS011;374;52.568;13.402;2023-12-07T04:36:19;51.57;;;27.10;;
781;SDS011;374;52.568;13.402;2023-12-07T04:38:45;57.33;;;29.10;;
781;SDS011;374;52.568;13.402;2023-12-07T04:41:10;55.23;;;30.03;;
781;SDS011;374;52.568;13.402;2023-12-07T04:43:35;53.20;;;26.87;;
781;SDS011;374;52.568;13.402;2023-12-07T04:46:01;62.50;;;29.30;;
781;SDS011;374;52.568;13.402;2023-12-07T04:48:26;55.93;;;31.33;;
781;SDS011;374;52.568;13.402;2023-12-07T04:50:52;62.87;;;28.83;;
781;SDS011;374;52.568;13.402;2023-12-07T04:53:17;59.60;;;28.20;;
781;SDS011;374;52.568;13.402;2023-12-07T04:55:43;48.60;;;26.60;;
781;SDS011;374;52.568;13.402;2023-12-07T04:58:12;57.53;;;29.30;;
781;SDS011;374;52.568;13.402;2023-12-07T05:00:38;54.33;;;26.67;;
781;SDS011;374;52.568;13.402;2023-12-07T05:03:03;62.07;;;31.20;;
781;SDS011;374;52.568;13.402;2023-12-07T05:05:29;58.93;;;28.60;;
781;SDS011;374;52.568;13.402;2023-12-07T05:07:54;64.40;;;28.07;;
781;SDS011;374;52.568;13.402;2023-12-07T05:10:20;54.30;;;27.67;;
781;SDS011;374;52.568;13.402;2023-12-07T05:12:45;60.13;;;26.27;;
781;SDS011;374;52.568;13.402;2023-12-07T05:15:11;54.90;;;27.60;;
781;SDS011;374;52.568;13.402;2023-12-07T05:17:36;57.80;;;26.70;;
781;SDS011;374;52.568;13.402;2023-12-07T05:20:03;52.77;;;27.30;;
781;SDS011;374;52.568;13.402;2023-12-07T05:22:30;66.10;;;28.00;;
781;SDS011;374;52.568;13.402;2023-12-07T05:24:55;66.27;;;28.50;;
781;SDS011;374;52.568;13.402;2023-12-07T05:27:21;56.83;;;27.00;;
781;SDS011;374;52.568;13.402;2023-12-07T05:29:46;56.13;;;27.10;;
781;SDS011;374;52.568;13.402;2023-12-07T05:32:12;59.77;;;28.90;;
781;SDS011;374;52.568;13.402;2023-12-07T05:34:37;63.93;;;27.90;;
781;SDS011;374;52.568;13.402;2023-12-07T05:37:03;64.97;;;27.30;;
781;SDS011;374;52.568;13.402;2023-12-07T05:39:29;62.93;;;27.20;;
781;SDS011;374;52.568;13.402;2023-12-07T05:41:55;56.87;;;27.87;;
781;SDS011;374;52.568;13.402;2023-12-07T05:44:20;59.07;;;28.70;;
781;SDS011;374;52.568;13.402;2023-12-07T05:46:47;54.33;;;27.60;;
781;SDS011;374;52.568;13.402;2023-12-07T05:49:13;55.37;;;27.00;;
781;SDS011;374;52.568;13.402;2023-12-07T05:51:39;48.47;;;25.87;;
781;SDS011;374;52.568;13.402;2023-12-07T05:54:04;57.13;;;27.93;;
781;SDS011;374;52.568;13.402;2023-12-07T05:56:30;58.57;;;29.00;;
781;SDS011;374;52.568;13.402;2023-12-07T05:58:59;58.93;;;27.47;;
781;SDS011;374;52.568;13.402;2023-12-07T06:01:24;50.63;;;26.47;;
781;SDS011;374;52.568;13.402;2023-12-07T06:03:49;54.77;;;26.77;;
781;SDS011;374;52.568;13.402;2023-12-07T06:06:15;56.90;;;28.53;;
781;SDS011;374;52.568;13.402;2023-12-07T06:08:40;55.83;;;26.43;;
781;SDS011;374;52.568;13.402;2023-12-07T06:11:06;59.10;;;27.80;;
781;SDS011;374;52.568;13.402;2023-12-07T06:13:32;56.20;;;26.67;;
781;SDS011;374;52.568;13.402;2023-12-07T06:15:58;62.97;;;28.43;;
781;SDS011;374;52.568;13.402;2023-12-07T06:18:24;58.37;;;25.97;;
781;SDS011;374;52.568;13.402;2023-12-07T06:20:50;56.27;;;26.83;;
781;SDS011;374;52.568;13.402;2023-12-07T06:23:15;46.13;;;23.87;;
781;SDS011;374;52.568;13.402;2023-12-07T06:25:41;53.33;;;26.33;;
781;SDS011;374;52.568;13.402;2023-12-07T06:28:06;55.83;;;25.83;;
781;SDS011;374;52.568;13.402;2023-12-07T06:30:32;47.30;;;25.87;;
781;SDS011;374;52.568;13.402;2023-12-07T06:32:58;60.03;;;27.30;;
781;SDS011;374;52.568;13.402;2023-12-07T06:35:23;52.23;;;26.47;;
781;SDS011;374;52.568;13.402;2023-12-07T06:37:49;53.10;;;26.73;;
781;SDS011;374;52.568;13.402;2023-12-07T06:40:14;58.40;;;27.77;;
781;SDS011;374;52.568;13.402;2023-12-07T06:42:40;53.17;;;27.90;;
781;SDS011;374;52.568;13.402;2023-12-07T06:45:06;55.30;;;26.00;;
781;SDS011;374;52.568;13.402;2023-12-07T06:47:36;55.60;;;28.93;;
781;SDS011;374;52.568;13.402;2023-12-07T06:50:02;53.03;;;24.27;;
781;SDS011;374;52.568;13.402;2023-12-07T06:52:28;60.13;;;27.17;;
781;SDS011;374;52.568;13.402;2023-12-07T06:54:54;53.67;;;26.03;;
781;SDS011;374;52.568;13.402;2023-12-07T06:57:20;56.80;;;26.93;;
781;SDS011;374;52.568;13.402;2023-12-07T06:59:46;57.07;;;27.83;;
781;SDS011;374;52.568;13.402;2023-12-07T07:02:12;55.23;;;26.30;;
781;SDS011;374;52.568;13.402;2023-12-07T07:04:38;46.87;;;25.23;;
781;SDS011;374;52.568;13.402;2023-12-07T07:07:03;53.53;;;27.07;;
781;SDS011;374;52.568;13.402;2023-12-07T07:09:28;50.40;;;26.30;;
781;SDS011;374;52.568;13.402;2023-12-07T07:11:54;52.50;;;28.30;;
781;SDS011;374;52.568;13.402;2023-12-07T07:14:19;51.03;;;25.90;;
781;SDS011;374;52.568;13.402;2023-12-07T07:16:45;60.83;;;27.63;;
781;SDS011;374;52.568;13.402;2023-12-07T07:19:10;56.77;;;25.63;;
781;SDS011;374;52.568;13.402;2023-12-07T07:21:44;56.90;;;27.37;;
781;SDS011;374;52.568;13.402;2023-12-07T07:24:09;47.37;;;27.27;;
781;SDS011;374;52.568;13.402;2023-12-07T07:26:35;52.27;;;26.53;;
781;SDS011;374;52.568;13.402;2023-12-07T07:29:00;59.37;;;31.40;;
781;SDS011;374;52.568;13.402;2023-12-07T07:31:26;58.97;;;31.37;;
781;SDS011;374;52.568;13.402;2023-12-07T07:33:54;67.93;;;28.10;;
781;SDS011;374;52.568;13.402;2023-12-07T07:36:20;62.43;;;29.20;;
781;SDS011;374;52.568;13.402;2023-12-07T07:38:45;64.03;;;28.87;;
781;SDS011;374;52.568;13.402;2023-12-07T07:41:12;59.37;;;26.83;;
781;SDS011;374;52.568;13.402;2023-12-07T07:43:37;50.30;;;25.90;;
781;SDS011;374;52.568;13.402;2023-12-07T07:46:03;69.77;;;29.30;;
781;SDS011;374;52.568;13.402;2023-12-07T07:48:29;55.60;;;27.90;;
781;SDS011;374;52.568;13.402;2023-12-07T07:50:55;51.17;;;27.40;;
781;SDS011;374;52.568;13.402;2023-12-07T07:53:20;53.00;;;26.03;;
781;SDS011;374;52.568;13.402;2023-12-07T07:55:46;55.23;;;29.33;;
781;SDS011;374;52.568;13.402;2023-12-07T07:58:11;58.00;;;25.67;;
781;SDS011;374;52.568;13.402;2023-12-07T08:00:37;58.93;;;27.40;;
781;SDS011;374;52.568;13.402;2023-12-07T08:03:03;58.63;;;27.60;;
781;SDS011;374;52.568;13.402;2023-12-07T08:05:31;60.33;;;28.50;;
781;SDS011;374;52.568;13.402;2023-12-07T08:07:58;55.63;;;28.10;;
781;SDS011;374;52.568;13.402;2023-12-07T08:10:23;53.17;;;27.47;;
781;SDS011;374;52.568;13.402;2023-12-07T08:12:49;54.33;;;26.37;;
781;SDS011;374;52.568;13.402;2023-12-07T08:15:15;61.43;;;28.00;;
781;SDS011;374;52.568;13.402;2023-12-07T08:17:41;53.53;;;27.00;;
781;SDS011;374;52.568;13.402;2023-12-07T08:20:07;60.10;;;26.77;;
781;SDS011;374;52.568;13.402;2023-12-07T08:22:35;53.53;;;27.43;;
781;SDS011;374;52.568;13.402;2023-12-07T08:25:01;56.97;;;26.40;;
781;SDS011;374;52.568;13.402;2023-12-07T08:27:27;63.20;;;29.33;;
781;SDS011;374;52.568;13.402;2023-12-07T08:29:53;60.20;;;28.37;;
781;SDS011;374;52.568;13.402;2023-12-07T08:32:18;70.83;;;30.13;;
781;SDS011;374;52.568;13.402;2023-12-07T08:34:44;59.50;;;29.13;;
781;SDS011;374;52.568;13.402;2023-12-07T08:37:10;72.83;;;30.03;;
781;SDS011;374;52.568;13.402;2023-12-07T08:39:35;66.27;;;31.00;;
781;SDS011;374;52.568;13.402;2023-12-07T08:42:01;60.27;;;30.73;;
781;SDS011;374;52.568;13.402;2023-12-07T08:44:26;66.07;;;30.07;;
781;SDS011;374;52.568;13.402;2023-12-07T08:46:52;56.07;;;30.30;;
781;SDS011;374;52.568;13.402;2023-12-07T08:49:18;72.40;;;30.77;;
781;SDS011;374;52.568;13.402;2023-12-07T08:51:43;62.27;;;29.20;;
781;SDS011;374;52.568;13.402;2023-12-07T08:54:10;61.17;;;29.97;;
781;SDS011;374;52.568;13.402;2023-12-07T08:56:35;57.83;;;30.13;;
781;SDS011;374;52.568;13.402;2023-12-07T08:59:01;65.43;;;31.73;;
781;SDS011;374;52.568;13.402;2023-12-07T09:01:27;52.43;;;29.00;;
781;SDS011;374;52.568;13.402;2023-12-07T09:03:52;69.70;;;29.93;;
781;SDS011;374;52.568;13.402;2023-12-07T09:09:41;55.87;;;28.90;;
781;SDS011;374;52.568;13.402;2023-12-07T09:12:11;63.57;;;29.77;;
781;SDS011;374;52.568;13.402;2023-12-07T09:14:37;71.10;;;31.73;;
781;SDS011;374;52.568;13.402;2023-12-07T09:17:03;68.83;;;31.67;;
781;SDS011;374;52.568;13.402;2023-12-07T09:19:46;55.73;;;29.67;;
781;SDS011;374;52.568;13.402;2023-12-07T09:22:12;66.87;;;31.33;;
781;SDS011;374;52.568;13.402;2023-12-07T09:24:38;62.20;;;30.53;;
781;SDS011;374;52.568;13.402;2023-12-07T09:27:07;53.87;;;27.67;;
781;SDS011;374;52.568;13.402;2023-12-07T09:29:35;51.03;;;26.90;;
781;SDS011;374;52.568;13.402;2023-12-07T09:32:04;59.37;;;30.40;;
781;SDS011;374;52.568;13.402;2023-12-07T09:34:31;56.80;;;27.63;;
781;SDS011;374;52.568;13.402;2023-12-07T09:37:08;57.80;;;28.17;;
781;SDS011;374;52.568;13.402;2023-12-07T09:39:34;57.57;;;28.50;;
781;SDS011;374;52.568;13.402;2023-12-07T09:42:09;55.47;;;26.37;;
781;SDS011;374;52.568;13.402;2023-12-07T09:44:44;59.37;;;28.40;;
781;SDS011;374;52.568;13.402;2023-12-07T09:47:10;57.13;;;29.30;;
781;SDS011;374;52.568;13.402;2023-12-07T09:49:36;60.80;;;27.80;;
781;SDS011;374;52.568;13.402;2023-12-07T09:52:02;66.23;;;29.33;;
781;SDS011;374;52.568;13.402;2023-12-07T09:54:29;55.00;;;28.53;;
781;SDS011;374;52.568;13.402;2023-12-07T09:56:55;61.20;;;28.47;;
781;SDS011;374;52.568;13.402;2023-12-07T09:59:24;58.73;;;28.60;;
781;SDS011;374;52.568;13.402;2023-12-07T10:01:50;54.03;;;28.13;;
781;SDS011;374;52.568;13.402;2023-12-07T10:04:22;50.73;;;24.97;;
781;SDS011;374;52.568;13.402;2023-12-07T10:06:51;52.97;;;27.03;;
781;SDS011;374;52.568;13.402;2023-12-07T10:09:19;52.00;;;26.50;;
781;SDS011;374;52.568;13.402;2023-12-07T10:11:49;56.17;;;26.43;;
781;SDS011;374;52.568;13.402;2023-12-07T10:14:17;56.00;;;25.50;;
781;SDS011;374;52.568;13.402;2023-12-07T10:16:53;49.00;;;24.33;;
781;SDS011;374;52.568;13.402;2023-12-07T10:19:20;45.90;;;22.80;;
781;SDS011;374;52.568;13.402;2023-12-07T10:21:53;50.50;;;24.57;;
781;SDS011;374;52.568;13.402;2023-12-07T10:24:22;57.20;;;24.00;;
781;SDS011;374;52.568;13.402;2023-12-07T10:26:56;47.50;;;24.40;;
781;SDS011;374;52.568;13.402;2023-12-07T10:29:21;51.33;;;24.87;;
781;SDS011;374;52.568;13.402;2023-12-07T10:32:05;45.50;;;23.10;;
781;SDS011;374;52.568;13.402;2023-12-07T10:34:38;49.20;;;24.23;;
781;SDS011;374;52.568;13.402;2023-12-07T10:37:08;48.60;;;22.90;;
781;SDS011;374;52.568;13.402;2023-12-07T10:39:37;41.20;;;23.57;;
781;SDS011;374;52.568;13.402;2023-12-07T10:42:03;47.83;;;24.23;;
781;SDS011;374;52.568;13.402;2023-12-07T10:44:35;44.23;;;25.00;;
781;SDS011;374;52.568;13.402;2023-12-07T10:47:11;51.67;;;26.87;;
781;SDS011;374;52.568;13.402;2023-12-07T10:49:39;53.93;;;26.20;;
781;SDS011;374;52.568;13.402;2023-12-07T10:52:07;54.77;;;25.77;;
781;SDS011;374;52.568;13.402;2023-12-07T10:54:43;51.47;;;24.97;;
781;SDS011;374;52.568;13.402;2023-12-07T10:57:16;58.27;;;24.47;;
781;SDS011;374;52.568;13.402;2023-12-07T10:59:44;43.97;;;25.17;;
781;SDS011;374;52.568;13.402;2023-12-07T11:02:15;51.20;;;27.70;;
781;SDS011;374;52.568;13.402;2023-12-07T11:04:41;46.33;;;25.67;;
781;SDS011;374;52.568;13.402;2023-12-07T11:07:09;48.17;;;26.40;;
781;SDS011;374;52.568;13.402;2023-12-07T11:09:41;49.07;;;24.70;;
781;SDS011;374;52.568;13.402;2023-12-07T11:12:12;62.73;;;28.27;;
781;SDS011;374;52.568;13.402;2023-12-07T11:14:51;56.60;;;26.20;;
781;SDS011;374;52.568;13.402;2023-12-07T11:17:47;61.17;;;26.60;;
781;SDS011;374;52.568;13.402;2023-12-07T11:20:21;64.43;;;27.53;;
781;SDS011;374;52.568;13.402;2023-12-07T11:22:47;60.80;;;29.70;;
781;SDS011;374;52.568;13.402;2023-12-07T11:25:14;55.57;;;29.70;;
781;SDS011;374;52.568;13.402;2023-12-07T11:27:40;55.80;;;29.90;;
781;SDS011;374;52.568;13.402;2023-12-07T11:30:12;66.97;;;27.73;;
781;SDS011;374;52.568;13.402;2023-12-07T11:32:39;60.00;;;30.23;;
781;SDS011;374;52.568;13.402;2023-12-07T11:35:04;59.83;;;28.47;;
781;SDS011;374;52.568;13.402;2023-12-07T11:40:42;55.83;;;29.87;;
781;SDS011;374;52.568;13.402;2023-12-07T11:43:16;58.17;;;28.40;;
781;SDS011;374;52.568;13.402;2023-12-07T11:45:49;60.70;;;28.70;;
781;SDS011;374;52.568;13.402;2023-12-07T11:48:15;60.87;;;31.57;;
781;SDS011;374;52.568;13.402;2023-12-07T11:50:55;49.70;;;29.47;;
781;SDS011;374;52.568;13.402;2023-12-07T11:53:28;54.90;;;29.37;;
781;SDS011;374;52.568;13.402;2023-12-07T11:55:59;58.90;;;29.00;;
781;SDS011;374;52.568;13.402;2023-12-07T11:58:26;58.90;;;30.50;;
781;SDS011;374;52.568;13.402;2023-12-07T12:00:55;71.97;;;32.13;;
781;SDS011;374;52.568;13.402;2023-12-07T12:03:25;49.63;;;27.97;;
781;SDS011;374;52.568;13.402;2023-12-07T12:05:51;64.73;;;30.93;;
781;SDS011;374;52.568;13.402;2023-12-07T12:08:17;56.63;;;26.67;;
781;SDS011;374;52.568;13.402;2023-12-07T12:10:44;54.47;;;30.37;;
781;SDS011;374;52.568;13.402;2023-12-07T12:13:10;55.53;;;30.77;;
781;SDS011;374;52.568;13.402;2023-12-07T12:15:37;62.20;;;30.40;;
781;SDS011;374;52.568;13.402;2023-12-07T12:18:04;67.60;;;29.87;;
781;SDS011;374;52.568;13.402;2023-12-07T12:20:29;63.73;;;28.10;;
781;SDS011;374;52.568;13.402;2023-12-07T12:22:56;61.67;;;28.33;;
781;SDS011;374;52.568;13.402;2023-12-07T12:25:25;71.03;;;31.20;;
781;SDS011;374;52.568;13.402;2023-12-07T12:27:56;67.60;;;27.27;;
781;SDS011;374;52.568;13.402;2023-12-07T12:30:23;62.60;;;28.83;;
781;SDS011;374;52.568;13.402;2023-12-07T12:32:49;58.83;;;27.10;;
781;SDS011;374;52.568;13.402;2023-12-07T12:35:16;56.40;;;28.37;;
781;SDS011;374;52.568;13.402;2023-12-07T12:37:42;65.27;;;32.57;;
781;SDS011;374;52.568;13.402;2023-12-07T12:40:09;55.47;;;31.00;;
781;SDS011;374;52.568;13.402;2023-12-07T12:42:36;62.93;;;30.00;;
781;SDS011;374;52.568;13.402;2023-12-07T12:45:05;52.87;;;29.60;;
781;SDS011;374;52.568;13.402;2023-12-07T12:47:33;59.70;;;31.53;;
781;SDS011;374;52.568;13.402;2023-12-07T12:50:10;62.43;;;31.87;;
781;SDS011;374;52.568;13.402;2023-12-07T12:52:57;57.27;;;29.83;;
781;SDS011;374;52.568;13.402;2023-12-07T12:55:25;72.47;;;30.50;;
781;SDS011;374;52.568;13.402;2023-12-07T12:57:51;65.13;;;30.00;;
781;SDS011;374;52.568;13.402;2023-12-07T13:00:16;62.20;;;30.90;;
781;SDS011;374;52.568;13.402;2023-12-07T13:02:42;61.10;;;30.47;;
781;SDS011;374;52.568;13.402;2023-12-07T13:05:11;66.20;;;32.53;;
781;SDS011;374;52.568;13.402;2023-12-07T13:07:37;61.70;;;31.10;;
781;SDS011;374;52.568;13.402;2023-12-07T13:10:02;66.53;;;31.53;;
781;SDS011;374;52.568;13.402;2023-12-07T13:12:28;73.10;;;33.93;;
781;SDS011;374;52.568;13.402;2023-12-07T13:14:59;68.20;;;33.00;;
781;SDS011;374;52.568;13.402;2023-12-07T13:17:25;71.73;;;35.93;;
781;SDS011;374;52.568;13.402;2023-12-07T13:19:51;67.87;;;34.80;;
781;SDS011;374;52.568;13.402;2023-12-07T13:22:16;71.10;;;36.03;;
781;SDS011;374;52.568;13.402;2023-12-07T13:24:42;79.37;;;34.10;;
781;SDS011;374;52.568;13.402;2023-12-07T13:27:08;66.83;;;36.00;;
781;SDS011;374;52.568;13.402;2023-12-07T13:29:34;74.57;;;34.53;;
781;SDS011;374;52.568;13.402;2023-12-07T13:31:59;80.13;;;38.17;;
781;SDS011;374;52.568;13.402;2023-12-07T13:34:24;72.50;;;36.27;;
781;SDS011;374;52.568;13.402;2023-12-07T13:36:51;59.23;;;35.07;;
781;SDS011;374;52.568;13.402;2023-12-07T13:39:16;82.67;;;37.47;;
781;SDS011;374;52.568;13.402;2023-12-07T13:41:45;81.10;;;39.73;;
781;SDS011;374;52.568;13.402;2023-12-07T13:44:12;80.23;;;37.47;;
781;SDS011;374;52.568;13.402;2023-12-07T13:46:38;83.93;;;39.30;;
781;SDS011;374;52.568;13.402;2023-12-07T13:49:03;90.97;;;39.93;;
781;SDS011;374;52.568;13.402;2023-12-07T13:51:29;84.40;;;37.90;;
781;SDS011;374;52.568;13.402;2023-12-07T13:53:54;97.67;;;41.10;;
781;SDS011;374;52.568;13.402;2023-12-07T13:56:21;85.43;;;37.47;;
781;SDS011;374;52.568;13.402;2023-12-07T13:58:48;87.60;;;40.57;;
781;SDS011;374;52.568;13.402;2023-12-07T14:01:14;83.13;;;40.70;;
781;SDS011;374;52.568;13.402;2023-12-07T14:03:40;99.47;;;42.20;;
781;SDS011;374;52.568;13.402;2023-12-07T14:06:08;87.33;;;41.97;;
781;SDS011;374;52.568;13.402;2023-12-07T14:08:37;93.27;;;43.33;;
781;SDS011;374;52.568;13.402;2023-12-07T14:11:03;92.90;;;44.60;;
781;SDS011;374;52.568;13.402;2023-12-07T14:13:29;90.20;;;40.87;;
781;SDS011;374;52.568;13.402;2023-12-07T14:15:54;83.60;;;43.40;;
781;SDS011;374;52.568;13.402;2023-12-07T14:18:20;106.53;;;43.90;;
781;SDS011;374;52.568;13.402;2023-12-07T14:20:45;105.33;;;45.70;;
781;SDS011;374;52.568;13.402;2023-12-07T14:23:11;92.17;;;42.00;;
781;SDS011;374;52.568;13.402;2023-12-07T14:25:37;88.07;;;43.47;;
781;SDS011;374;52.568;13.402;2023-12-07T14:28:05;105.97;;;48.07;;
781;SDS011;374;52.568;13.402;2023-12-07T14:30:30;99.97;;;43.47;;
781;SDS011;374;52.568;13.402;2023-12-07T14:32:56;110.23;;;47.77;;
781;SDS011;374;52.568;13.402;2023-12-07T14:35:21;99.83;;;44.67;;
781;SDS011;374;52.568;13.402;2023-12-07T14:37:49;101.33;;;45.93;;
781;SDS011;374;52.568;13.402;2023-12-07T14:40:15;103.63;;;44.30;;
781;SDS011;374;52.568;13.402;2023-12-07T14:42:42;93.37;;;45.47;;
781;SDS011;374;52.568;13.402;2023-12-07T14:45:07;108.63;;;44.63;;
781;SDS011;374;52.568;13.402;2023-12-07T14:47:35;100.63;;;47.97;;
781;SDS011;374;52.568;13.402;2023-12-07T14:50:00;111.77;;;44.20;;
781;SDS011;374;52.568;13.402;2023-12-07T14:52:26;112.93;;;43.87;;
781;SDS011;374;52.568;13.402;2023-12-07T14:54:51;106.80;;;46.87;;
781;SDS011;374;52.568;13.402;2023-12-07T14:57:17;111.23;;;47.07;;
781;SDS011;374;52.568;13.402;2023-12-07T14:59:43;109.00;;;46.87;;
781;SDS011;374;52.568;13.402;2023-12-07T15:02:09;108.63;;;49.30;;
781;SDS011;374;52.568;13.402;2023-12-07T15:04:35;99.90;;;44.97;;
781;SDS011;374;52.568;13.402;2023-12-07T15:07:03;115.80;;;45.73;;
781;SDS011;374;52.568;13.402;2023-12-07T15:09:29;102.40;;;46.50;;